Time;durP1;ratioP1;P1;durP2;ratioP2;P2;SDS_P1;SDS_P2;PMS_P1;PMS_P2;Temp;Humidity;BMP_temperature;BMP_pressure;BME280_temperature;BME280_humidity;BME280_pressure;Samples;Min_cycle;Max_cycle;Signal;HPM_P1;HPM_P2
2024/01/16 00:00:12;;;;;;;15.20;9.20;;;;;;;3.02;81.38;97112.34;5070609;28;20130;-68
2024/01/16 00:02:40;;;;;;;15.88;9.27;;;;;;;2.79;82.35;97116.91;5083936;28;20444;-66
2024/01/16 00:05:09;;;;;;;17.95;9.88;;;;;;;2.72;83.83;97115.81;5051684;28;20046;-67
2024/01/16 00:07:38;;;;;;;16.88;9.75;;;;;;;2.93;82.65;97126.00;5059358;28;20474;-66
2024/01/16 00:10:04;;;;;;;19.33;9.60;;;;;;;2.39;83.14;97062.13;5056941;28;20036;-67
2024/01/16 00:12:32;;;;;;;14.45;9.23;;;;;;;2.80;82.57;97132.19;5068121;28;20034;-67
2024/01/16 00:14:57;;;;;;;17.45;8.88;;;;;;;2.55;82.58;97123.19;5065683;28;20027;-65
2024/01/16 00:17:22;;;;;;;14.10;8.05;;;;;;;2.42;84.57;97125.19;5052954;28;20054;-68
2024/01/16 00:19:53;;;;;;;18.90;9.95;;;;;;;2.10;84.72;97075.69;5075557;28;20390;-66
2024/01/16 00:22:23;;;;;;;15.30;9.50;;;;;;;2.37;84.02;97132.47;5074757;28;20035;-67
2024/01/16 00:24:48;;;;;;;15.00;8.80;;;;;;;1.96;83.70;97088.03;5087569;28;20039;-66
2024/01/16 00:27:13;;;;;;;15.32;8.95;;;;;;;2.31;84.43;97133.78;5069722;28;20142;-68
2024/01/16 00:29:39;;;;;;;15.38;8.93;;;;;;;2.08;84.93;97126.28;5072945;28;20050;-68
2024/01/16 00:32:04;;;;;;;18.30;8.40;;;;;;;2.01;85.28;97142.28;5053327;28;20064;-66
2024/01/16 00:34:32;;;;;;;15.93;9.55;;;;;;;1.73;85.20;97095.84;5058522;28;20031;-66
2024/01/16 00:37:00;;;;;;;18.42;8.52;;;;;;;1.97;86.42;97151.16;5075438;28;20029;-67
2024/01/16 00:39:25;;;;;;;15.10;8.32;;;;;;;1.95;86.31;97158.97;5066842;28;20027;-68
2024/01/16 00:41:51;;;;;;;17.27;9.30;;;;;;;2.04;85.08;97152.28;5058074;28;21663;-68
2024/01/16 00:44:16;;;;;;;14.07;9.07;;;;;;;1.83;85.67;97103.63;5066602;28;20588;-66
2024/01/16 00:46:44;;;;;;;14.30;9.32;;;;;;;2.00;84.01;97091.94;5074723;28;20020;-67
2024/01/16 00:49:14;;;;;;;15.85;8.82;;;;;;;2.17;83.65;97155.44;5067916;28;20142;-66
2024/01/16 00:51:42;;;;;;;15.38;8.32;;;;;;;2.05;84.87;97141.91;5071667;28;20028;-66
2024/01/16 00:54:07;;;;;;;14.63;9.27;;;;;;;2.19;83.81;97142.50;5072815;28;20034;-66
2024/01/16 00:56:36;;;;;;;16.55;9.40;;;;;;;2.21;84.21;97146.56;5046239;28;20024;-67
2024/01/16 00:59:01;;;;;;;16.25;8.85;;;;;;;2.31;84.15;97162.00;5055558;28;20444;-67
2024/01/16 01:01:29;;;;;;;15.00;9.05;;;;;;;2.23;84.80;97161.84;5071445;28;20032;-67
2024/01/16 01:03:54;;;;;;;14.07;8.85;;;;;;;2.21;84.48;97150.88;5053108;28;20215;-66
2024/01/16 01:06:20;;;;;;;13.70;8.60;;;;;;;2.28;83.69;97172.50;5056766;28;20036;-66
2024/01/16 01:08:48;;;;;;;15.82;8.80;;;;;;;1.78;84.01;97116.00;5061692;28;21124;-66
2024/01/16 01:11:16;;;;;;;14.00;8.60;;;;;;;1.67;84.76;97119.44;5071833;28;20032;-68
2024/01/16 01:13:41;;;;;;;15.45;8.73;;;;;;;2.11;83.72;97173.91;5066225;28;20056;-67
2024/01/16 01:16:07;;;;;;;18.35;9.10;;;;;;;2.15;84.55;97170.16;5057642;28;20028;-67
2024/01/16 01:18:34;;;;;;;17.65;9.30;;;;;;;1.97;84.47;97184.50;5074631;28;20128;-67
2024/01/16 01:21:02;;;;;;;15.90;9.02;;;;;;;1.75;83.98;97145.22;5077517;28;20981;-67
2024/01/16 01:23:30;;;;;;;14.38;8.55;;;;;;;1.82;84.43;97189.94;5064576;28;20031;-67
2024/01/16 01:25:56;;;;;;;17.13;9.45;;;;;;;1.87;84.66;97203.19;5051714;28;20024;-67
2024/01/16 01:28:21;;;;;;;16.27;8.80;;;;;;;2.01;84.17;97209.75;5092842;28;20781;-67
2024/01/16 01:30:46;;;;;;;14.90;9.20;;;;;;;2.04;83.54;97219.75;5074432;28;20030;-67
2024/01/16 01:33:12;;;;;;;15.07;8.75;;;;;;;1.69;84.64;97231.09;5074026;28;20513;-66
2024/01/16 01:35:39;;;;;;;15.75;9.27;;;;;;;1.75;85.26;97229.00;5076720;28;20051;-64
2024/01/16 01:38:07;;;;;;;13.23;8.52;;;;;;;1.47;85.18;97195.34;5077662;28;20067;-67
2024/01/16 01:40:40;;;;;;;14.77;8.73;;;;;;;1.62;84.90;97241.97;5075260;28;20138;-68
2024/01/16 01:43:24;;;;;;;15.02;8.63;;;;;;;1.77;84.69;97232.25;5078510;28;20482;-66
2024/01/16 01:45:59;;;;;;;14.18;8.63;;;;;;;1.93;83.43;97235.19;5078133;28;20827;-69
2024/01/16 01:48:24;;;;;;;14.63;8.68;;;;;;;1.81;83.26;97233.66;5075509;28;20039;-67
2024/01/16 01:50:50;;;;;;;15.02;8.70;;;;;;;1.81;83.87;97233.66;5059627;27;20046;-69
2024/01/16 01:53:16;;;;;;;15.90;8.20;;;;;;;1.91;83.83;97229.38;5064036;28;20052;-68
2024/01/16 01:55:41;;;;;;;13.23;7.95;;;;;;;1.91;83.41;97232.75;5085241;27;20451;-66
2024/01/16 01:58:09;;;;;;;13.40;8.48;;;;;;;1.66;82.85;97249.31;5065487;28;20464;-66
2024/01/16 02:00:40;;;;;;;15.70;9.02;;;;;;;1.88;82.63;97248.41;5080270;27;20513;-67
2024/01/16 02:03:07;;;;;;;14.05;8.23;;;;;;;1.67;82.89;97245.78;5081385;27;20047;-65
2024/01/16 02:05:33;;;;;;;12.68;8.15;;;;;;;1.67;83.40;97242.44;5076280;27;20028;-67
2024/01/16 02:07:58;;;;;;;15.40;8.40;;;;;;;1.74;83.23;97258.94;5059517;27;20030;-68
2024/01/16 02:10:26;;;;;;;16.35;9.38;;;;;;;1.43;83.14;97204.22;5085095;27;20675;-66
2024/01/16 02:12:52;;;;;;;15.13;8.23;;;;;;;1.71;83.42;97275.34;5078523;28;20115;-67
2024/01/16 02:15:19;;;;;;;17.60;9.27;;;;;;;1.58;82.81;97267.03;5064002;28;20035;-68
2024/01/16 02:17:49;;;;;;;14.98;8.82;;;;;;;1.20;83.14;97211.94;5049419;28;20739;-66
2024/01/16 02:20:14;;;;;;;;;;;;;;;1.52;84.04;97277.78;5075654;28;20093;-66
2024/01/16 02:22:44;;;;;;;12.70;7.55;;;;;;;1.46;84.03;97273.94;5061973;28;19928;-67
2024/01/16 02:25:11;;;;;;;14.85;8.07;;;;;;;1.47;83.92;97290.94;5060798;28;20078;-67
2024/01/16 02:27:37;;;;;;;14.23;7.78;;;;;;;1.50;83.63;97287.31;5076850;27;20077;-68
2024/01/16 02:30:03;;;;;;;13.40;7.90;;;;;;;1.49;84.16;97286.50;5073940;28;20433;-66
2024/01/16 02:32:28;;;;;;;13.40;7.65;;;;;;;1.53;84.22;97292.19;5065978;28;20027;-66
2024/01/16 02:34:56;;;;;;;13.05;8.10;;;;;;;1.43;85.06;97299.78;5055142;28;20640;-68
2024/01/16 02:37:24;;;;;;;15.65;8.55;;;;;;;1.45;83.71;97281.75;5059522;28;20019;-66
2024/01/16 02:39:52;;;;;;;13.68;8.38;;;;;;;1.50;83.86;97292.44;5060891;28;20626;-66
2024/01/16 02:42:20;;;;;;;14.27;8.13;;;;;;;1.16;83.17;97241.28;5077431;28;20036;-67
2024/01/16 02:44:45;;;;;;;14.27;8.45;;;;;;;1.49;83.27;97301.84;5072305;28;20036;-66
2024/01/16 02:47:13;;;;;;;13.90;7.40;;;;;;;1.13;83.49;97267.13;5064632;28;20050;-67
2024/01/16 02:49:39;;;;;;;14.70;7.38;;;;;;;1.48;84.20;97315.63;5088701;28;20027;-67
2024/01/16 02:52:05;;;;;;;14.15;7.75;;;;;;;1.32;83.34;97307.50;5074156;28;20990;-67
2024/01/16 02:54:33;;;;;;;14.23;7.65;;;;;;;1.13;83.33;97288.44;5056390;28;20034;-66
2024/01/16 02:56:58;;;;;;;15.48;8.02;;;;;;;0.99;83.80;97281.00;5073476;28;20024;-67
2024/01/16 02:59:28;;;;;;;15.80;6.95;;;;;;;0.91;83.88;97273.06;5088870;28;20046;-68
2024/01/16 03:01:55;;;;;;;;;;;;;;;1.34;83.13;97337.16;5051702;28;20055;-66
2024/01/16 03:04:21;;;;;;;14.30;6.53;;;;;;;1.08;83.93;97323.81;5086756;28;19916;-67
2024/01/16 03:06:46;;;;;;;12.25;6.85;;;;;;;1.13;84.98;97323.44;5078733;28;20028;-66
2024/01/16 03:09:14;;;;;;;12.68;7.95;;;;;;;1.20;85.30;97337.41;5075529;28;20486;-68
2024/01/16 03:11:39;;;;;;;13.40;8.10;;;;;;;1.18;84.76;97313.66;5070441;28;20708;-67
2024/01/16 03:14:05;;;;;;;13.20;8.07;;;;;;;1.20;84.97;97342.53;5070975;28;20047;-66
2024/01/16 03:16:52;;;;;;;14.35;8.48;;;;;;;1.21;85.64;97333.94;5084006;28;20023;-67
2024/01/16 03:19:17;;;;;;;15.65;8.60;;;;;;;1.27;85.77;97342.88;5072589;28;20043;-67
2024/01/16 03:21:42;;;;;;;18.20;9.63;;;;;;;1.19;86.47;97334.97;5073697;28;20036;-67
2024/01/16 03:24:10;;;;;;;18.17;10.20;;;;;;;1.03;88.18;97340.44;5070800;28;20050;-68
2024/01/16 03:26:37;;;;;;;21.00;10.50;;;;;;;1.38;88.51;97368.47;5071054;28;20119;-66
2024/01/16 03:29:02;;;;;;;19.55;11.13;;;;;;;1.50;87.86;97361.63;5071870;28;20470;-67
2024/01/16 03:31:28;;;;;;;19.13;11.27;;;;;;;1.41;87.70;97359.78;5056919;28;20012;-68
2024/01/16 03:33:53;;;;;;;17.35;10.35;;;;;;;1.07;88.35;97321.34;5073435;28;20511;-67
2024/01/16 03:36:21;;;;;;;19.50;11.35;;;;;;;0.79;88.03;97315.78;5061008;28;20024;-67
2024/01/16 03:38:46;;;;;;;17.83;10.88;;;;;;;1.32;87.65;97363.84;5069856;28;20076;-66
2024/01/16 03:41:12;;;;;;;18.27;10.25;;;;;;;1.06;87.29;97314.59;5063907;28;20041;-66
2024/01/16 03:43:37;;;;;;;17.08;10.57;;;;;;;1.17;87.36;97367.56;5055955;28;20155;-67
2024/01/16 03:46:05;;;;;;;16.73;10.40;;;;;;;1.04;87.80;97376.19;5077234;28;20031;-68
2024/01/16 03:48:30;;;;;;;17.63;10.63;;;;;;;1.00;88.92;97387.56;5068072;28;20116;-67
2024/01/16 03:50:56;;;;;;;17.90;10.82;;;;;;;1.14;88.99;97377.09;5068424;28;20043;-68
2024/01/16 03:53:24;;;;;;;19.00;10.75;;;;;;;0.98;88.82;97389.41;5074619;28;20031;-69
2024/01/16 03:55:51;;;;;;;17.20;10.90;;;;;;;0.89;90.76;97392.66;5070653;28;20074;-67
2024/01/16 03:58:17;;;;;;;18.63;11.00;;;;;;;0.71;91.01;97397.38;5078496;28;20119;-66
2024/01/16 04:00:47;;;;;;;18.58;10.98;;;;;;;0.71;91.93;97392.28;5071434;28;20035;-68
2024/01/16 04:03:13;;;;;;;20.70;11.57;;;;;;;0.95;92.37;97390.47;5084391;28;20583;-68
2024/01/16 04:05:38;;;;;;;22.25;13.00;;;;;;;0.97;93.17;97387.81;5066479;28;20028;-69
2024/01/16 04:08:04;;;;;;;25.05;13.48;;;;;;;0.93;94.59;97401.75;5057978;28;20127;-68
2024/01/16 04:10:29;;;;;;;27.08;15.75;;;;;;;0.99;96.54;97403.06;5073426;28;20039;-66
2024/01/16 04:12:55;;;;;;;34.70;18.85;;;;;;;1.20;100.00;97403.97;5071675;28;20058;-67
2024/01/16 04:15:22;;;;;;;32.17;19.17;;;;;;;1.37;100.00;97418.09;5059291;28;20467;-68
2024/01/16 04:17:48;;;;;;;30.83;19.95;;;;;;;1.51;100.00;97409.34;5076120;27;20039;-67
2024/01/16 04:20:13;;;;;;;35.30;20.67;;;;;;;1.66;100.00;97425.28;5070322;27;20027;-66
2024/01/16 04:22:39;;;;;;;36.63;21.98;;;;;;;1.71;100.00;97428.31;5076826;27;20084;-67
2024/01/16 04:25:09;;;;;;;37.38;23.58;;;;;;;1.77;100.00;97420.19;5075847;28;20589;-66
2024/01/16 04:27:34;;;;;;;36.55;22.67;;;;;;;1.88;100.00;97425.28;5075099;28;20028;-67
2024/01/16 04:30:02;;;;;;;37.95;23.75;;;;;;;1.88;100.00;97432.97;5072622;27;20498;-67
2024/01/16 04:32:28;;;;;;;29.00;18.42;;;;;;;1.72;100.00;97435.09;5099973;27;20035;-67
2024/01/16 04:34:53;;;;;;;31.65;20.15;;;;;;;1.32;100.00;97387.69;5074737;28;20114;-68
2024/01/16 04:37:19;;;;;;;35.70;21.40;;;;;;;1.70;100.00;97442.88;5059907;28;20142;-68
2024/01/16 04:39:46;;;;;;;38.10;22.63;;;;;;;1.57;100.00;97405.50;5077581;27;20598;-68
2024/01/16 04:42:14;;;;;;;36.92;23.38;;;;;;;1.76;100.00;97454.41;5075132;28;20032;-66
2024/01/16 04:44:40;;;;;;;38.25;23.83;;;;;;;1.90;100.00;97454.16;5081427;28;20020;-66
2024/01/16 04:47:08;;;;;;;35.10;21.70;;;;;;;1.82;100.00;97455.69;5058287;27;20047;-67
2024/01/16 04:49:36;;;;;;;30.77;19.30;;;;;;;1.67;98.94;97462.81;5077695;28;20026;-67
2024/01/16 04:52:04;;;;;;;33.28;20.27;;;;;;;1.54;98.92;97457.81;5080646;28;20089;-68
2024/01/16 04:54:30;;;;;;;33.10;19.80;;;;;;;1.47;99.53;97449.75;5058559;27;20051;-66
2024/01/16 04:56:55;;;;;;;30.63;19.75;;;;;;;1.53;98.86;97461.28;5079444;28;20083;-66
2024/01/16 04:59:20;;;;;;;32.60;20.48;;;;;;;1.59;99.16;97465.13;5071474;28;20043;-67
2024/01/16 05:01:46;;;;;;;30.33;19.63;;;;;;;1.52;98.52;97475.84;5057748;28;20467;-67
2024/01/16 05:04:16;;;;;;;30.33;19.40;;;;;;;1.53;98.48;97471.53;5091343;28;20034;-66
2024/01/16 05:06:41;;;;;;;28.75;19.77;;;;;;;1.53;98.54;97485.19;5062501;28;20038;-68
2024/01/16 05:09:09;;;;;;;30.35;19.58;;;;;;;1.38;98.69;97475.25;5056022;28;20024;-67
2024/01/16 05:11:34;;;;;;;31.92;20.05;;;;;;;1.34;99.00;97474.66;5061065;28;20556;-67
2024/01/16 05:14:02;;;;;;;30.98;19.75;;;;;;;0.94;98.08;97434.91;5075422;28;20162;-66
2024/01/16 05:16:27;;;;;;;32.03;19.77;;;;;;;1.01;98.60;97491.59;5058530;28;20023;-67
2024/01/16 05:18:56;;;;;;;30.38;20.02;;;;;;;0.79;100.00;97502.56;5099156;28;20108;-67
2024/01/16 05:21:24;;;;;;;34.88;19.67;;;;;;;0.83;100.00;97503.97;5089998;28;20440;-67
2024/01/16 05:23:54;;;;;;;31.70;19.90;;;;;;;1.04;100.00;97511.88;5088085;28;20094;-68
2024/01/16 05:26:20;;;;;;;32.90;19.30;;;;;;;1.21;100.00;97517.50;5059754;27;20722;-67
2024/01/16 05:28:47;;;;;;;32.63;19.25;;;;;;;1.29;99.67;97512.59;5075817;28;20030;-67
2024/01/16 05:31:15;;;;;;;31.55;19.33;;;;;;;1.12;99.66;97516.41;5073081;27;20042;-69
2024/01/16 05:33:40;;;;;;;33.97;19.38;;;;;;;0.78;99.61;97485.56;5065467;27;20142;-68
2024/01/16 05:36:06;;;;;;;34.38;19.85;;;;;;;0.81;99.44;97489.69;5088122;28;20031;-67
2024/01/16 05:38:35;;;;;;;32.30;19.58;;;;;;;0.71;99.16;97466.47;5079855;28;20560;-67
2024/01/16 05:41:03;;;;;;;31.60;18.80;;;;;;;1.13;98.97;97521.44;5082314;28;20019;-67
2024/01/16 05:43:29;;;;;;;33.50;19.95;;;;;;;1.11;98.20;97522.44;5082057;28;20027;-66
2024/01/16 05:45:55;;;;;;;32.95;19.65;;;;;;;1.11;97.75;97522.44;5076996;27;21474;-67
2024/01/16 05:48:20;;;;;;;32.72;19.75;;;;;;;0.66;97.32;97471.94;5065843;28;20031;-66
2024/01/16 05:50:46;;;;;;;33.50;19.98;;;;;;;1.10;97.13;97539.56;5062515;27;20024;-67
2024/01/16 05:53:11;;;;;;;32.75;19.73;;;;;;;1.04;98.19;97531.50;5085605;28;20027;-68
2024/01/16 05:55:36;;;;;;;29.55;18.58;;;;;;;1.06;97.49;97533.03;5057176;27;20031;-67
2024/01/16 05:58:02;;;;;;;29.65;19.70;;;;;;;0.96;97.50;97544.88;5078466;28;20046;-66
2024/01/16 06:00:28;;;;;;;32.95;19.02;;;;;;;0.76;98.06;97531.75;5064040;28;20023;-68
2024/01/16 06:02:53;;;;;;;35.83;20.25;;;;;;;0.89;97.64;97541.09;5065341;27;20027;-67
2024/01/16 06:05:18;;;;;;;38.83;23.42;;;;;;;0.85;97.23;97545.63;5068270;27;20039;-66
2024/01/16 06:07:44;;;;;;;40.47;23.70;;;;;;;0.88;97.21;97542.06;5063318;27;20035;-66
2024/01/16 06:10:14;;;;;;;41.63;23.33;;;;;;;0.88;97.30;97547.97;5056535;28;20125;-67
2024/01/16 06:12:40;;;;;;;36.63;22.08;;;;;;;0.48;98.54;97550.81;5063383;27;20035;-67
2024/01/16 06:15:08;;;;;;;38.10;21.02;;;;;;;0.51;100.00;97539.53;5080809;28;20036;-67
2024/01/16 06:17:34;;;;;;;34.70;20.38;;;;;;;0.43;100.00;97559.72;5060857;28;20561;-67
2024/01/16 06:20:02;;;;;;;34.80;22.42;;;;;;;0.48;100.00;97568.69;5072802;28;20031;-69
2024/01/16 06:22:30;;;;;;;38.65;23.67;;;;;;;0.63;98.43;97571.94;5092081;28;20038;-67
2024/01/16 06:24:58;;;;;;;37.58;23.65;;;;;;;0.69;99.58;97578.34;5076107;28;20139;-67
2024/01/16 06:27:23;;;;;;;38.08;23.40;;;;;;;0.66;99.08;97591.38;5080064;28;20764;-66
2024/01/16 06:29:51;;;;;;;35.33;22.20;;;;;;;0.67;98.41;97582.75;5078538;28;20072;-65
2024/01/16 06:32:19;;;;;;;36.55;22.58;;;;;;;0.69;98.87;97591.94;5061964;28;20047;-68
2024/01/16 06:34:44;;;;;;;40.65;22.20;;;;;;;0.58;98.60;97589.34;5048446;28;20024;-67
2024/01/16 06:37:10;;;;;;;38.63;21.75;;;;;;;0.62;98.50;97595.06;5073498;28;20040;-68
2024/01/16 06:39:39;;;;;;;38.33;23.92;;;;;;;0.71;98.48;97597.81;5076387;28;20035;-68
2024/01/16 06:42:05;;;;;;;34.65;23.05;;;;;;;0.76;98.21;97594.91;5073731;28;20028;-69
2024/01/16 06:44:32;;;;;;;38.03;23.88;;;;;;;0.72;97.55;97603.72;5061932;28;20034;-67
2024/01/16 06:46:58;;;;;;;39.83;23.40;;;;;;;0.69;98.40;97599.63;5054427;28;20147;-67
2024/01/16 06:49:23;;;;;;;38.58;23.27;;;;;;;0.70;98.16;97600.47;5057227;28;20043;-67
2024/01/16 06:51:48;;;;;;;40.95;23.40;;;;;;;0.75;99.18;97609.47;5071927;28;20028;-68
2024/01/16 06:54:20;;;;;;;38.78;23.50;;;;;;;0.84;99.20;97620.78;5059904;28;20098;-69
2024/01/16 06:56:48;;;;;;;39.10;23.80;;;;;;;0.59;100.00;97613.19;5073163;28;20031;-67
2024/01/16 06:59:14;;;;;;;42.67;24.40;;;;;;;0.59;99.64;97619.13;5076795;28;20035;-68
2024/01/16 07:01:40;;;;;;;37.60;23.98;;;;;;;0.11;100.00;97589.16;5060823;28;20027;-67
2024/01/16 07:04:07;;;;;;;42.17;23.77;;;;;;;0.23;100.00;97623.28;5058666;28;20028;-69
2024/01/16 07:06:33;;;;;;;41.47;24.50;;;;;;;0.26;100.00;97633.31;5081661;28;20034;-67
2024/01/16 07:08:58;;;;;;;41.92;24.83;;;;;;;0.52;100.00;97638.38;5048739;28;20033;-67
2024/01/16 07:11:24;;;;;;;39.25;23.67;;;;;;;0.59;100.00;97651.56;5063066;27;20140;-66
2024/01/16 07:13:54;;;;;;;37.03;23.05;;;;;;;0.64;100.00;97657.16;5081477;28;20086;-67
2024/01/16 07:16:19;;;;;;;45.20;24.85;;;;;;;0.54;100.00;97660.34;5081032;27;20150;-67
2024/01/16 07:18:44;;;;;;;40.92;24.10;;;;;;;0.62;99.78;97669.25;5055108;28;20042;-66
2024/01/16 07:21:20;;;;;;;45.33;26.77;;;;;;;0.60;100.00;97676.22;5057128;28;20670;-70
2024/01/16 07:23:48;;;;;;;43.05;26.10;;;;;;;0.62;99.43;97672.66;5060013;28;20067;-67
2024/01/16 07:26:13;;;;;;;44.67;26.48;;;;;;;0.73;98.79;97682.97;5062940;28;20031;-67
2024/01/16 07:28:39;;;;;;;42.70;25.65;;;;;;;0.69;99.04;97689.19;5078870;28;20029;-68
2024/01/16 07:31:05;;;;;;;43.78;25.98;;;;;;;0.59;99.22;97683.09;5054186;28;20058;-69
2024/01/16 07:33:33;;;;;;;42.28;25.17;;;;;;;0.64;99.75;97687.88;5054132;28;21190;-66
2024/01/16 07:35:58;;;;;;;46.35;27.13;;;;;;;0.62;100.00;97682.88;5088222;28;20525;-69
2024/01/16 07:38:24;;;;;;;42.92;26.45;;;;;;;0.68;100.00;97702.09;5076913;28;20043;-68
2024/01/16 07:40:49;;;;;;;44.22;25.83;;;;;;;0.69;100.00;97714.78;5069191;28;20038;-68
2024/01/16 07:43:14;;;;;;;42.53;25.73;;;;;;;0.66;100.00;97701.41;5048148;28;20117;-68
2024/01/16 07:45:40;;;;;;;44.75;26.75;;;;;;;0.68;100.00;97731.06;5075690;28;20027;-68
2024/01/16 07:48:08;;;;;;;41.33;25.15;;;;;;;0.65;100.00;97725.34;5069302;28;20540;-68
2024/01/16 07:50:33;;;;;;;42.97;26.17;;;;;;;0.61;100.00;97729.03;5078699;28;20019;-69
2024/01/16 07:52:59;;;;;;;40.05;25.38;;;;;;;0.67;100.00;97746.53;5047482;28;20348;-68
2024/01/16 07:55:24;;;;;;;43.20;26.10;;;;;;;0.75;100.00;97746.84;5068938;28;20034;-69
2024/01/16 07:57:53;;;;;;;41.22;25.88;;;;;;;0.85;100.00;97752.94;5075742;27;20126;-68
2024/01/16 08:00:19;;;;;;;42.05;24.90;;;;;;;0.72;99.64;97737.59;5068805;28;20042;-70
2024/01/16 08:02:44;;;;;;;40.50;25.55;;;;;;;0.82;100.00;97763.41;5053196;28;20036;-69
2024/01/16 08:05:12;;;;;;;46.22;24.90;;;;;;;0.82;100.00;97768.53;5080650;28;20038;-69
2024/01/16 08:07:40;;;;;;;40.60;26.20;;;;;;;0.80;100.00;97777.22;5081324;27;20462;-69
2024/01/16 08:10:08;;;;;;;39.55;25.88;;;;;;;0.84;100.00;97789.72;5075498;28;20063;-68
2024/01/16 08:12:33;;;;;;;41.20;24.90;;;;;;;0.93;100.00;97791.66;5060656;28;20502;-69
2024/01/16 08:14:59;;;;;;;45.38;26.52;;;;;;;0.95;100.00;97792.34;5053172;28;20038;-67
2024/01/16 08:17:24;;;;;;;41.85;26.80;;;;;;;0.82;100.00;97781.31;5061915;28;20042;-69
2024/01/16 08:19:52;;;;;;;46.28;28.33;;;;;;;0.87;100.00;97798.91;5068672;28;20031;-69
2024/01/16 08:22:17;;;;;;;46.63;28.73;;;;;;;0.58;100.00;97753.06;5062735;28;20028;-68
2024/01/16 08:24:48;;;;;;;47.90;28.77;;;;;;;0.99;100.00;97810.88;5056185;28;20753;-66
2024/01/16 08:27:13;;;;;;;49.30;27.92;;;;;;;0.89;100.00;97799.63;5072870;28;20119;-66
2024/01/16 08:29:39;;;;;;;47.58;26.63;;;;;;;0.92;100.00;97801.97;5077195;28;20041;-68
2024/01/16 08:32:06;;;;;;;46.17;27.75;;;;;;;0.89;100.00;97803.00;5054947;28;20659;-69
2024/01/16 08:34:32;;;;;;;40.22;25.35;;;;;;;0.85;100.00;97800.75;5051194;28;20035;-67
2024/01/16 08:37:00;;;;;;;40.13;25.42;;;;;;;0.93;100.00;97812.13;5062887;28;20470;-69
2024/01/16 08:39:27;;;;;;;44.30;26.13;;;;;;;0.89;100.00;97809.88;5060872;28;20043;-70
2024/01/16 08:41:53;;;;;;;44.95;26.45;;;;;;;0.93;100.00;97821.53;5076512;28;20023;-73
2024/01/16 08:44:18;;;;;;;42.97;26.17;;;;;;;0.85;100.00;97809.25;5048635;28;20028;-70
2024/01/16 08:46:46;;;;;;;40.95;25.45;;;;;;;0.70;100.00;97782.94;5094711;27;20087;-74
2024/01/16 08:49:14;;;;;;;43.45;26.30;;;;;;;0.99;100.00;97828.00;5066014;28;20027;-73
2024/01/16 08:51:41;;;;;;;47.63;26.17;;;;;;;0.92;100.00;97833.50;5062275;28;20016;-73
2024/01/16 08:54:08;;;;;;;40.97;24.60;;;;;;;0.96;100.00;97834.94;5066496;28;20066;-73
2024/01/16 08:56:34;;;;;;;38.00;23.23;;;;;;;1.01;100.00;97834.63;5056358;28;20039;-72
2024/01/16 08:58:59;;;;;;;44.10;26.35;;;;;;;1.20;100.00;97834.19;5055049;28;20028;-72
2024/01/16 09:01:25;;;;;;;42.47;25.38;;;;;;;0.98;100.00;97768.28;5069073;28;20058;-72
2024/01/16 09:03:53;;;;;;;42.83;25.85;;;;;;;1.47;100.00;97828.09;5076383;28;20051;-73
2024/01/16 09:06:23;;;;;;;38.40;24.38;;;;;;;1.57;100.00;97841.94;5073271;28;20168;-72
2024/01/16 09:08:48;;;;;;;40.30;24.35;;;;;;;1.57;100.00;97839.38;5082407;28;20830;-71
2024/01/16 09:11:14;;;;;;;41.45;25.00;;;;;;;1.66;100.00;97837.88;5053634;28;20073;-71
2024/01/16 09:13:39;;;;;;;41.42;25.92;;;;;;;1.51;100.00;97814.16;5060390;28;20039;-75
2024/01/16 09:16:05;;;;;;;44.75;25.02;;;;;;;1.61;100.00;97838.22;5061558;28;20401;-72
2024/01/16 09:18:30;;;;;;;44.92;25.55;;;;;;;1.64;100.00;97848.25;5072200;28;20025;-72
2024/01/16 09:20:58;;;;;;;41.65;26.02;;;;;;;1.68;100.00;97844.56;5074740;28;20024;-72
2024/01/16 09:23:23;;;;;;;32.55;20.88;;;;;;;1.57;100.00;97864.16;5061788;28;20036;-73
2024/01/16 09:25:49;;;;;;;33.45;19.33;;;;;;;1.29;100.00;97794.34;5072504;28;20042;-73
2024/01/16 09:28:18;;;;;;;36.53;21.42;;;;;;;1.85;100.00;97863.88;5071070;28;20032;-73
2024/01/16 09:30:43;;;;;;;33.00;20.02;;;;;;;1.96;100.00;97868.25;5076150;28;20016;-73
2024/01/16 09:33:10;;;;;;;28.23;17.05;;;;;;;1.96;100.00;97852.03;5068723;28;20024;-72
2024/01/16 09:35:36;;;;;;;31.95;17.23;;;;;;;1.89;100.00;97829.38;5076786;28;20020;-71
2024/01/16 09:38:02;;;;;;;27.13;16.35;;;;;;;1.92;100.00;97813.78;5052958;28;20036;-73
2024/01/16 09:40:27;;;;;;;31.88;18.10;;;;;;;2.24;100.00;97858.56;5061111;28;20039;-72
2024/01/16 09:42:53;;;;;;;28.52;17.58;;;;;;;2.25;99.77;97855.09;5059627;28;20020;-73
2024/01/16 09:45:21;;;;;;;27.20;16.92;;;;;;;2.19;98.80;97852.94;5057915;28;20077;-71
2024/01/16 09:47:52;;;;;;;27.02;16.92;;;;;;;2.29;98.30;97859.06;5076434;28;20027;-73
2024/01/16 09:50:19;;;;;;;28.10;17.15;;;;;;;2.09;97.70;97825.41;5054874;28;20091;-72
2024/01/16 09:52:50;;;;;;;27.75;17.25;;;;;;;2.35;98.55;97857.78;5049990;28;20036;-73
2024/01/16 09:55:15;;;;;;;33.75;17.63;;;;;;;2.35;97.19;97863.72;5072157;28;20070;-71
2024/01/16 09:57:41;;;;;;;30.73;16.73;;;;;;;2.13;96.23;97820.88;5055519;28;20118;-73
2024/01/16 10:00:16;;;;;;;26.08;16.20;;;;;;;2.42;96.99;97874.38;5055851;28;20075;-73
2024/01/16 10:02:45;;;;;;;29.27;17.75;;;;;;;2.39;96.71;97867.75;5078971;28;20651;-70
2024/01/16 10:05:11;;;;;;;26.38;15.82;;;;;;;2.17;96.10;97824.03;5072580;28;20050;-72
2024/01/16 10:07:44;;;;;;;26.13;15.43;;;;;;;2.46;96.06;97868.94;5074501;28;20134;-73
2024/01/16 10:10:12;;;;;;;25.35;14.60;;;;;;;2.46;96.73;97871.50;5084704;27;20174;-73
2024/01/16 10:12:40;;;;;;;25.38;15.20;;;;;;;2.55;96.36;97876.88;5075782;28;20486;-73
2024/01/16 10:15:09;;;;;;;25.90;15.90;;;;;;;2.28;97.00;97818.94;5060650;28;20348;-72
2024/01/16 10:17:38;;;;;;;29.88;15.77;;;;;;;2.63;96.00;97856.59;5057660;28;20150;-73
2024/01/16 10:20:04;;;;;;;23.08;15.15;;;;;;;2.42;95.03;97816.16;5078088;27;20036;-72
2024/01/16 10:22:30;;;;;;;21.08;13.13;;;;;;;2.50;94.72;97807.91;5080746;28;20051;-70
2024/01/16 10:25:12;;;;;;;24.02;13.77;;;;;;;2.96;92.34;97845.56;5057819;27;20650;-70
2024/01/16 10:27:40;;;;;;;24.35;13.30;;;;;;;2.96;91.77;97857.59;5081859;28;20044;-70
2024/01/16 10:30:07;;;;;;;22.98;13.60;;;;;;;3.07;91.61;97855.84;5077793;28;20027;-70
2024/01/16 10:32:40;;;;;;;25.95;14.65;;;;;;;3.10;92.42;97861.69;5074032;28;20983;-70
2024/01/16 10:35:13;;;;;;;23.65;14.80;;;;;;;3.24;92.49;97877.69;5067649;28;20085;-70
2024/01/16 10:37:52;;;;;;;26.88;14.88;;;;;;;3.26;92.37;97862.16;5060965;28;20090;-70
2024/01/16 10:40:27;;;;;;;27.17;14.63;;;;;;;3.33;92.92;97868.47;5045051;28;20042;-69
2024/01/16 10:42:58;;;;;;;27.25;15.38;;;;;;;3.19;92.72;97827.59;5053767;28;20043;-69
2024/01/16 10:45:23;;;;;;;24.00;15.63;;;;;;;3.26;91.45;97818.47;5076929;28;20036;-70
2024/01/16 10:48:08;;;;;;;24.45;14.70;;;;;;;3.65;91.29;97860.84;5082946;28;20474;-70
2024/01/16 10:50:36;;;;;;;26.58;15.48;;;;;;;3.72;91.24;97865.50;5062003;28;20023;-70
2024/01/16 10:53:06;;;;;;;25.23;15.40;;;;;;;3.77;91.80;97864.19;5091809;28;20032;-70
2024/01/16 10:55:40;;;;;;;24.77;15.13;;;;;;;3.77;91.28;97853.09;5056782;28;20092;-70
2024/01/16 10:58:07;;;;;;;29.25;15.90;;;;;;;3.89;91.68;97859.03;5060745;28;20036;-71
2024/01/16 11:00:35;;;;;;;24.95;16.10;;;;;;;3.94;91.05;97850.03;5057885;28;20023;-68
2024/01/16 11:03:25;;;;;;;25.38;15.00;;;;;;;4.04;90.00;97852.69;5077898;27;20130;-69
2024/01/16 11:05:54;;;;;;;25.25;14.80;;;;;;;4.15;88.27;97851.84;5067267;28;20041;-71
2024/01/16 11:08:24;;;;;;;24.65;15.05;;;;;;;4.13;89.65;97843.41;5053050;28;20035;-69
2024/01/16 11:10:50;;;;;;;26.83;15.07;;;;;;;4.21;88.47;97843.59;5065988;28;20026;-70
2024/01/16 11:13:20;;;;;;;23.48;15.23;;;;;;;4.28;86.46;97855.03;5038738;27;20059;-70
2024/01/16 11:15:46;;;;;;;21.88;14.75;;;;;;;4.31;84.92;97857.38;5040824;27;20935;-69
2024/01/16 11:18:19;;;;;;;24.65;15.15;;;;;;;4.05;84.91;97810.56;5051386;28;20111;-70
2024/01/16 11:20:44;;;;;;;23.20;13.73;;;;;;;4.29;86.75;97856.69;5048174;28;20629;-70
2024/01/16 11:23:14;;;;;;;24.67;14.27;;;;;;;4.40;86.80;97859.22;5067580;28;20144;-70
2024/01/16 11:25:41;;;;;;;;;;;;;;;4.46;86.55;97857.09;5065613;28;20617;-70